sensor_id;sensor_type;location;lat;lon;timestamp;temperature;humidity
4564;DHT22;2294;51.818;8.484;2023-03-03T00:00:45;4.80;99.90
4564;DHT22;2294;51.818;8.484;2023-03-03T00:03:16;4.90;99.90
4564;DHT22;2294;51.818;8.484;2023-03-03T00:05:43;4.90;99.90
4564;DHT22;2294;51.818;8.484;2023-03-03T00:08:12;5.00;99.90
4564;DHT22;2294;51.818;8.484;2023-03-03T00:10:39;5.10;99.90
4564;DHT22;2294;51.818;8.484;2023-03-03T00:13:12;5.00;99.90
4564;DHT22;2294;51.818;8.484;2023-03-03T00:15:41;5.00;99.90
4564;DHT22;2294;51.818;8.484;2023-03-03T00:18:17;5.00;99.90
4564;DHT22;2294;51.818;8.484;2023-03-03T00:20:49;5.10;99.90
4564;DHT22;2294;51.818;8.484;2023-03-03T00:23:29;5.00;99.90
4564;DHT22;2294;51.818;8.484;2023-03-03T00:25:57;4.80;99.90
4564;DHT22;2294;51.818;8.484;2023-03-03T00:28:27;5.00;99.90
4564;DHT22;2294;51.818;8.484;2023-03-03T00:30:56;5.20;99.90
4564;DHT22;2294;51.818;8.484;2023-03-03T00:33:29;5.00;99.90
4564;DHT22;2294;51.818;8.484;2023-03-03T00:36:10;4.90;99.90
4564;DHT22;2294;51.818;8.484;2023-03-03T00:38:48;4.90;99.90
4564;DHT22;2294;51.818;8.484;2023-03-03T00:41:21;5.00;99.90
4564;DHT22;2294;51.818;8.484;2023-03-03T00:43:49;4.90;99.90
4564;DHT22;2294;51.818;8.484;2023-03-03T00:46:17;5.00;99.90
4564;DHT22;2294;51.818;8.484;2023-03-03T00:48:45;4.90;99.90
4564;DHT22;2294;51.818;8.484;2023-03-03T00:51:25;4.90;99.90
4564;DHT22;2294;51.818;8.484;2023-03-03T00:53:54;4.80;99.90
4564;DHT22;2294;51.818;8.484;2023-03-03T00:56:21;4.80;99.90
4564;DHT22;2294;51.818;8.484;2023-03-03T00:58:48;4.80;99.90
4564;DHT22;2294;51.818;8.484;2023-03-03T01:01:16;4.70;99.90
4564;DHT22;2294;51.818;8.484;2023-03-03T01:03:43;4.70;99.90
4564;DHT22;2294;51.818;8.484;2023-03-03T01:06:11;4.70;99.90
4564;DHT22;2294;51.818;8.484;2023-03-03T01:08:39;4.40;99.90
4564;DHT22;2294;51.818;8.484;2023-03-03T01:11:11;4.50;99.90
4564;DHT22;2294;51.818;8.484;2023-03-03T01:13:40;4.40;99.90
4564;DHT22;2294;51.818;8.484;2023-03-03T01:16:08;4.50;99.90
4564;DHT22;2294;51.818;8.484;2023-03-03T01:18:36;4.30;99.90
4564;DHT22;2294;51.818;8.484;2023-03-03T01:21:05;4.50;99.90
4564;DHT22;2294;51.818;8.484;2023-03-03T01:23:31;4.60;99.90
4564;DHT22;2294;51.818;8.484;2023-03-03T01:25:59;4.50;99.90
4564;DHT22;2294;51.818;8.484;2023-03-03T01:28:28;4.40;99.90
4564;DHT22;2294;51.818;8.484;2023-03-03T01:31:00;4.60;99.90
4564;DHT22;2294;51.818;8.484;2023-03-03T01:33:27;4.50;99.90
4564;DHT22;2294;51.818;8.484;2023-03-03T01:35:53;4.40;99.90
4564;DHT22;2294;51.818;8.484;2023-03-03T01:38:20;4.50;99.90
4564;DHT22;2294;51.818;8.484;2023-03-03T01:40:52;4.60;99.90
4564;DHT22;2294;51.818;8.484;2023-03-03T01:43:18;4.90;99.90
4564;DHT22;2294;51.818;8.484;2023-03-03T01:46:25;4.90;99.90
4564;DHT22;2294;51.818;8.484;2023-03-03T01:48:56;4.70;99.90
4564;DHT22;2294;51.818;8.484;2023-03-03T01:51:28;4.70;99.90
4564;DHT22;2294;51.818;8.484;2023-03-03T01:53:59;4.70;99.90
4564;DHT22;2294;51.818;8.484;2023-03-03T01:56:27;4.90;99.90
4564;DHT22;2294;51.818;8.484;2023-03-03T01:58:57;5.10;99.90
4564;DHT22;2294;51.818;8.484;2023-03-03T02:01:28;5.10;99.90
4564;DHT22;2294;51.818;8.484;2023-03-03T02:03:56;5.10;99.90
4564;DHT22;2294;51.818;8.484;2023-03-03T02:06:26;5.20;99.90
4564;DHT22;2294;51.818;8.484;2023-03-03T02:08:59;5.40;99.90
4564;DHT22;2294;51.818;8.484;2023-03-03T02:11:29;5.20;99.90
4564;DHT22;2294;51.818;8.484;2023-03-03T02:13:57;5.30;99.90
4564;DHT22;2294;51.818;8.484;2023-03-03T02:16:24;5.30;99.90
4564;DHT22;2294;51.818;8.484;2023-03-03T02:18:52;5.30;99.90
4564;DHT22;2294;51.818;8.484;2023-03-03T02:21:20;5.40;99.90
4564;DHT22;2294;51.818;8.484;2023-03-03T02:23:51;5.30;99.90
4564;DHT22;2294;51.818;8.484;2023-03-03T02:26:21;5.40;99.90
4564;DHT22;2294;51.818;8.484;2023-03-03T02:28:49;5.40;99.90
4564;DHT22;2294;51.818;8.484;2023-03-03T02:31:19;5.40;99.90
4564;DHT22;2294;51.818;8.484;2023-03-03T02:33:47;5.50;99.90
4564;DHT22;2294;51.818;8.484;2023-03-03T02:36:16;5.50;99.90
4564;DHT22;2294;51.818;8.484;2023-03-03T02:38:47;5.50;99.90
4564;DHT22;2294;51.818;8.484;2023-03-03T02:41:31;5.50;99.90
4564;DHT22;2294;51.818;8.484;2023-03-03T02:44:01;5.40;99.90
4564;DHT22;2294;51.818;8.484;2023-03-03T02:46:31;5.40;99.90
4564;DHT22;2294;51.818;8.484;2023-03-03T02:48:59;5.30;99.90
4564;DHT22;2294;51.818;8.484;2023-03-03T02:51:26;5.30;99.90
4564;DHT22;2294;51.818;8.484;2023-03-03T02:53:53;5.00;99.90
4564;DHT22;2294;51.818;8.484;2023-03-03T02:56:20;5.20;99.90
4564;DHT22;2294;51.818;8.484;2023-03-03T02:58:48;5.40;99.90
4564;DHT22;2294;51.818;8.484;2023-03-03T03:01:15;5.40;99.90
4564;DHT22;2294;51.818;8.484;2023-03-03T03:03:42;5.30;99.90
4564;DHT22;2294;51.818;8.484;2023-03-03T03:06:09;5.30;99.90
4564;DHT22;2294;51.818;8.484;2023-03-03T03:08:36;5.40;99.90
4564;DHT22;2294;51.818;8.484;2023-03-03T03:11:04;5.40;99.90
4564;DHT22;2294;51.818;8.484;2023-03-03T03:13:31;5.50;99.90
4564;DHT22;2294;51.818;8.484;2023-03-03T03:16:00;5.40;99.90
4564;DHT22;2294;51.818;8.484;2023-03-03T03:18:27;5.30;99.90
4564;DHT22;2294;51.818;8.484;2023-03-03T03:20:54;5.30;99.90
4564;DHT22;2294;51.818;8.484;2023-03-03T03:23:20;5.20;99.90
4564;DHT22;2294;51.818;8.484;2023-03-03T03:25:48;5.30;99.90
4564;DHT22;2294;51.818;8.484;2023-03-03T03:28:16;5.30;99.90
4564;DHT22;2294;51.818;8.484;2023-03-03T03:30:43;5.20;99.90
4564;DHT22;2294;51.818;8.484;2023-03-03T03:33:12;5.20;99.90
4564;DHT22;2294;51.818;8.484;2023-03-03T03:35:39;5.00;99.90
4564;DHT22;2294;51.818;8.484;2023-03-03T03:38:10;5.00;99.90
4564;DHT22;2294;51.818;8.484;2023-03-03T03:40:37;4.90;99.90
4564;DHT22;2294;51.818;8.484;2023-03-03T03:43:04;5.10;99.90
4564;DHT22;2294;51.818;8.484;2023-03-03T03:45:31;5.10;99.90
4564;DHT22;2294;51.818;8.484;2023-03-03T03:47:58;5.10;99.90
4564;DHT22;2294;51.818;8.484;2023-03-03T03:50:26;5.10;99.90
4564;DHT22;2294;51.818;8.484;2023-03-03T03:52:54;5.20;99.90
4564;DHT22;2294;51.818;8.484;2023-03-03T03:55:20;5.20;99.90
4564;DHT22;2294;51.818;8.484;2023-03-03T03:57:48;5.30;99.90
4564;DHT22;2294;51.818;8.484;2023-03-03T04:00:15;5.20;99.90
4564;DHT22;2294;51.818;8.484;2023-03-03T04:02:42;5.20;99.90
4564;DHT22;2294;51.818;8.484;2023-03-03T04:05:09;5.20;99.90
4564;DHT22;2294;51.818;8.484;2023-03-03T04:07:37;5.20;99.90
4564;DHT22;2294;51.818;8.484;2023-03-03T04:10:05;5.10;99.90
4564;DHT22;2294;51.818;8.484;2023-03-03T04:12:32;5.10;99.90
4564;DHT22;2294;51.818;8.484;2023-03-03T04:15:03;5.00;99.90
4564;DHT22;2294;51.818;8.484;2023-03-03T04:17:30;5.10;99.90
4564;DHT22;2294;51.818;8.484;2023-03-03T04:19:57;5.00;99.90
4564;DHT22;2294;51.818;8.484;2023-03-03T04:22:24;4.90;99.90
4564;DHT22;2294;51.818;8.484;2023-03-03T04:24:53;4.90;99.90
4564;DHT22;2294;51.818;8.484;2023-03-03T04:27:20;4.90;99.90
4564;DHT22;2294;51.818;8.484;2023-03-03T04:29:47;4.90;99.90
4564;DHT22;2294;51.818;8.484;2023-03-03T04:32:13;4.90;99.90
4564;DHT22;2294;51.818;8.484;2023-03-03T04:34:40;4.70;99.90
4564;DHT22;2294;51.818;8.484;2023-03-03T04:37:07;4.80;99.90
4564;DHT22;2294;51.818;8.484;2023-03-03T04:39:34;4.70;99.90
4564;DHT22;2294;51.818;8.484;2023-03-03T04:42:03;4.70;99.90
4564;DHT22;2294;51.818;8.484;2023-03-03T04:44:29;4.70;99.90
4564;DHT22;2294;51.818;8.484;2023-03-03T04:46:56;4.70;99.90
4564;DHT22;2294;51.818;8.484;2023-03-03T04:49:23;4.80;99.90
4564;DHT22;2294;51.818;8.484;2023-03-03T04:51:50;4.90;99.90
4564;DHT22;2294;51.818;8.484;2023-03-03T04:54:17;5.00;99.90
4564;DHT22;2294;51.818;8.484;2023-03-03T04:56:44;5.00;99.90
4564;DHT22;2294;51.818;8.484;2023-03-03T04:59:12;5.00;99.90
4564;DHT22;2294;51.818;8.484;2023-03-03T05:01:40;4.70;99.90
4564;DHT22;2294;51.818;8.484;2023-03-03T05:04:07;4.70;99.90
4564;DHT22;2294;51.818;8.484;2023-03-03T05:06:34;4.80;99.90
4564;DHT22;2294;51.818;8.484;2023-03-03T05:09:00;4.90;99.90
4564;DHT22;2294;51.818;8.484;2023-03-03T05:11:28;4.90;99.90
4564;DHT22;2294;51.818;8.484;2023-03-03T05:13:57;4.90;99.90
4564;DHT22;2294;51.818;8.484;2023-03-03T05:16:25;4.90;99.90
4564;DHT22;2294;51.818;8.484;2023-03-03T05:18:52;5.00;99.90
4564;DHT22;2294;51.818;8.484;2023-03-03T05:21:19;5.00;99.90
4564;DHT22;2294;51.818;8.484;2023-03-03T05:23:45;4.90;99.90
4564;DHT22;2294;51.818;8.484;2023-03-03T05:26:12;4.80;99.90
4564;DHT22;2294;51.818;8.484;2023-03-03T05:28:39;4.60;99.90
4564;DHT22;2294;51.818;8.484;2023-03-03T05:31:06;4.70;99.90
4564;DHT22;2294;51.818;8.484;2023-03-03T05:33:35;4.80;99.90
4564;DHT22;2294;51.818;8.484;2023-03-03T05:36:01;4.90;99.90
4564;DHT22;2294;51.818;8.484;2023-03-03T05:38:28;4.80;99.90
4564;DHT22;2294;51.818;8.484;2023-03-03T05:40:55;4.80;99.90
4564;DHT22;2294;51.818;8.484;2023-03-03T05:43:22;4.80;99.90
4564;DHT22;2294;51.818;8.484;2023-03-03T05:45:54;4.80;99.90
4564;DHT22;2294;51.818;8.484;2023-03-03T05:48:21;4.70;99.90
4564;DHT22;2294;51.818;8.484;2023-03-03T05:50:49;4.80;99.90
4564;DHT22;2294;51.818;8.484;2023-03-03T05:53:16;4.80;99.90
4564;DHT22;2294;51.818;8.484;2023-03-03T05:55:43;4.70;99.90
4564;DHT22;2294;51.818;8.484;2023-03-03T05:58:10;4.80;99.90
4564;DHT22;2294;51.818;8.484;2023-03-03T06:00:37;4.80;99.90
4564;DHT22;2294;51.818;8.484;2023-03-03T06:03:05;4.50;99.90
4564;DHT22;2294;51.818;8.484;2023-03-03T06:05:32;4.60;99.90
4564;DHT22;2294;51.818;8.484;2023-03-03T06:08:00;4.70;99.90
4564;DHT22;2294;51.818;8.484;2023-03-03T06:10:27;4.70;99.90
4564;DHT22;2294;51.818;8.484;2023-03-03T06:12:54;4.70;99.90
4564;DHT22;2294;51.818;8.484;2023-03-03T06:15:21;4.70;99.90
4564;DHT22;2294;51.818;8.484;2023-03-03T06:17:48;4.90;99.90
4564;DHT22;2294;51.818;8.484;2023-03-03T06:20:15;4.70;99.90
4564;DHT22;2294;51.818;8.484;2023-03-03T06:22:42;4.80;99.90
4564;DHT22;2294;51.818;8.484;2023-03-03T06:25:10;4.90;99.90
4564;DHT22;2294;51.818;8.484;2023-03-03T06:27:37;4.90;99.90
4564;DHT22;2294;51.818;8.484;2023-03-03T06:30:05;4.70;99.90
4564;DHT22;2294;51.818;8.484;2023-03-03T06:32:32;4.70;99.90
4564;DHT22;2294;51.818;8.484;2023-03-03T06:34:59;4.70;99.90
4564;DHT22;2294;51.818;8.484;2023-03-03T06:37:26;4.80;99.90
4564;DHT22;2294;51.818;8.484;2023-03-03T06:39:53;4.60;99.90
4564;DHT22;2294;51.818;8.484;2023-03-03T06:42:21;4.70;99.90
4564;DHT22;2294;51.818;8.484;2023-03-03T06:44:49;4.70;99.90
4564;DHT22;2294;51.818;8.484;2023-03-03T06:47:16;4.70;99.90
4564;DHT22;2294;51.818;8.484;2023-03-03T06:49:43;4.10;99.90
4564;DHT22;2294;51.818;8.484;2023-03-03T06:52:12;4.30;99.90
4564;DHT22;2294;51.818;8.484;2023-03-03T06:54:39;4.50;99.90
4564;DHT22;2294;51.818;8.484;2023-03-03T06:57:15;4.60;99.90
4564;DHT22;2294;51.818;8.484;2023-03-03T06:59:46;4.10;99.90
4564;DHT22;2294;51.818;8.484;2023-03-03T07:02:16;4.40;99.90
4564;DHT22;2294;51.818;8.484;2023-03-03T07:04:44;4.40;99.90
4564;DHT22;2294;51.818;8.484;2023-03-03T07:07:16;4.40;99.90
4564;DHT22;2294;51.818;8.484;2023-03-03T07:09:46;4.10;99.90
4564;DHT22;2294;51.818;8.484;2023-03-03T07:12:15;4.00;99.90
4564;DHT22;2294;51.818;8.484;2023-03-03T07:14:46;4.60;99.90
4564;DHT22;2294;51.818;8.484;2023-03-03T07:17:17;4.20;99.90
4564;DHT22;2294;51.818;8.484;2023-03-03T07:19:44;4.00;99.90
4564;DHT22;2294;51.818;8.484;2023-03-03T07:22:15;4.10;99.90
4564;DHT22;2294;51.818;8.484;2023-03-03T07:24:43;4.10;99.90
4564;DHT22;2294;51.818;8.484;2023-03-03T07:27:13;3.90;99.90
4564;DHT22;2294;51.818;8.484;2023-03-03T07:29:46;4.20;99.90
4564;DHT22;2294;51.818;8.484;2023-03-03T07:32:25;4.70;99.90
4564;DHT22;2294;51.818;8.484;2023-03-03T07:34:53;4.90;99.90
4564;DHT22;2294;51.818;8.484;2023-03-03T07:37:28;4.80;99.90
4564;DHT22;2294;51.818;8.484;2023-03-03T07:39:57;5.00;99.90
4564;DHT22;2294;51.818;8.484;2023-03-03T07:42:25;5.00;99.90
4564;DHT22;2294;51.818;8.484;2023-03-03T07:44:56;4.90;99.90
4564;DHT22;2294;51.818;8.484;2023-03-03T07:47:25;4.90;99.90
4564;DHT22;2294;51.818;8.484;2023-03-03T07:49:53;4.50;99.90
4564;DHT22;2294;51.818;8.484;2023-03-03T07:52:27;4.50;99.90
4564;DHT22;2294;51.818;8.484;2023-03-03T07:54:56;4.40;99.90
4564;DHT22;2294;51.818;8.484;2023-03-03T07:57:25;4.40;99.90
4564;DHT22;2294;51.818;8.484;2023-03-03T07:59:57;4.30;99.90
4564;DHT22;2294;51.818;8.484;2023-03-03T08:02:48;4.10;99.90
4564;DHT22;2294;51.818;8.484;2023-03-03T08:05:30;4.20;99.90
4564;DHT22;2294;51.818;8.484;2023-03-03T08:08:14;4.20;99.90
4564;DHT22;2294;51.818;8.484;2023-03-03T08:10:47;4.30;99.90
4564;DHT22;2294;51.818;8.484;2023-03-03T08:13:17;4.70;99.90
4564;DHT22;2294;51.818;8.484;2023-03-03T08:15:47;4.30;99.90
4564;DHT22;2294;51.818;8.484;2023-03-03T08:18:23;4.20;99.90
4564;DHT22;2294;51.818;8.484;2023-03-03T08:20:53;4.30;99.90
4564;DHT22;2294;51.818;8.484;2023-03-03T08:23:21;4.40;99.90
4564;DHT22;2294;51.818;8.484;2023-03-03T08:25:50;4.50;99.90
4564;DHT22;2294;51.818;8.484;2023-03-03T08:28:18;4.30;99.90
4564;DHT22;2294;51.818;8.484;2023-03-03T08:30:47;4.20;99.90
4564;DHT22;2294;51.818;8.484;2023-03-03T08:33:14;4.60;99.90
4564;DHT22;2294;51.818;8.484;2023-03-03T08:35:42;4.40;99.90
4564;DHT22;2294;51.818;8.484;2023-03-03T08:38:12;4.30;99.90
4564;DHT22;2294;51.818;8.484;2023-03-03T08:40:39;4.30;99.90
4564;DHT22;2294;51.818;8.484;2023-03-03T08:43:07;4.20;99.90
4564;DHT22;2294;51.818;8.484;2023-03-03T08:45:34;4.50;99.90
4564;DHT22;2294;51.818;8.484;2023-03-03T08:48:03;4.20;99.90
4564;DHT22;2294;51.818;8.484;2023-03-03T08:50:30;4.80;99.90
4564;DHT22;2294;51.818;8.484;2023-03-03T08:52:57;4.40;99.90
4564;DHT22;2294;51.818;8.484;2023-03-03T08:55:24;4.50;99.90
4564;DHT22;2294;51.818;8.484;2023-03-03T08:57:51;4.30;99.90
4564;DHT22;2294;51.818;8.484;2023-03-03T09:00:19;4.50;99.90
4564;DHT22;2294;51.818;8.484;2023-03-03T09:02:49;4.60;99.90
4564;DHT22;2294;51.818;8.484;2023-03-03T09:05:19;5.10;99.90
4564;DHT22;2294;51.818;8.484;2023-03-03T09:07:47;4.70;99.90
4564;DHT22;2294;51.818;8.484;2023-03-03T09:10:18;5.00;99.90
4564;DHT22;2294;51.818;8.484;2023-03-03T09:12:47;5.40;99.90
4564;DHT22;2294;51.818;8.484;2023-03-03T09:15:19;5.10;99.90
4564;DHT22;2294;51.818;8.484;2023-03-03T09:17:47;4.70;99.90
4564;DHT22;2294;51.818;8.484;2023-03-03T09:20:26;4.90;99.90
4564;DHT22;2294;51.818;8.484;2023-03-03T09:22:55;4.50;99.90
4564;DHT22;2294;51.818;8.484;2023-03-03T09:25:29;4.60;99.90
4564;DHT22;2294;51.818;8.484;2023-03-03T09:27:57;4.70;99.90
4564;DHT22;2294;51.818;8.484;2023-03-03T09:30:38;6.20;99.90
4564;DHT22;2294;51.818;8.484;2023-03-03T09:33:26;5.50;99.90
4564;DHT22;2294;51.818;8.484;2023-03-03T09:36:02;5.10;99.90
4564;DHT22;2294;51.818;8.484;2023-03-03T09:38:31;4.80;99.90
4564;DHT22;2294;51.818;8.484;2023-03-03T09:41:15;5.20;99.90
4564;DHT22;2294;51.818;8.484;2023-03-03T09:46:51;4.60;99.90
4564;DHT22;2294;51.818;8.484;2023-03-03T09:49:27;4.50;99.90
4564;DHT22;2294;51.818;8.484;2023-03-03T09:52:11;4.60;99.90
4564;DHT22;2294;51.818;8.484;2023-03-03T09:54:56;5.10;99.90
4564;DHT22;2294;51.818;8.484;2023-03-03T09:57:32;5.10;99.90
4564;DHT22;2294;51.818;8.484;2023-03-03T10:00:20;5.50;99.90
4564;DHT22;2294;51.818;8.484;2023-03-03T10:03:00;5.80;99.90
4564;DHT22;2294;51.818;8.484;2023-03-03T10:05:38;5.90;99.90
4564;DHT22;2294;51.818;8.484;2023-03-03T10:08:25;5.60;99.90
4564;DHT22;2294;51.818;8.484;2023-03-03T10:11:01;5.70;99.90
4564;DHT22;2294;51.818;8.484;2023-03-03T10:13:49;5.70;99.90
4564;DHT22;2294;51.818;8.484;2023-03-03T10:16:32;6.00;99.90
4564;DHT22;2294;51.818;8.484;2023-03-03T10:19:12;6.00;99.90
4564;DHT22;2294;51.818;8.484;2023-03-03T10:21:45;6.10;99.90
4564;DHT22;2294;51.818;8.484;2023-03-03T10:24:24;6.20;99.90
4564;DHT22;2294;51.818;8.484;2023-03-03T10:27:04;6.30;99.90
4564;DHT22;2294;51.818;8.484;2023-03-03T10:29:37;6.40;99.90
4564;DHT22;2294;51.818;8.484;2023-03-03T10:32:29;6.10;99.90
4564;DHT22;2294;51.818;8.484;2023-03-03T10:35:07;6.10;99.90
4564;DHT22;2294;51.818;8.484;2023-03-03T10:37:49;5.80;99.90
4564;DHT22;2294;51.818;8.484;2023-03-03T10:40:25;5.80;99.90
4564;DHT22;2294;51.818;8.484;2023-03-03T10:43:08;4.90;99.90
4564;DHT22;2294;51.818;8.484;2023-03-03T10:49:08;5.60;99.90
4564;DHT22;2294;51.818;8.484;2023-03-03T10:51:48;4.90;99.90
4564;DHT22;2294;51.818;8.484;2023-03-03T10:54:27;5.30;99.90
4564;DHT22;2294;51.818;8.484;2023-03-03T10:57:00;5.60;99.90
4564;DHT22;2294;51.818;8.484;2023-03-03T10:59:36;5.80;99.90
4564;DHT22;2294;51.818;8.484;2023-03-03T11:02:13;5.40;99.90
4564;DHT22;2294;51.818;8.484;2023-03-03T11:05:05;5.10;99.90
4564;DHT22;2294;51.818;8.484;2023-03-03T11:07:41;5.30;99.90
4564;DHT22;2294;51.818;8.484;2023-03-03T11:10:20;5.20;99.90
4564;DHT22;2294;51.818;8.484;2023-03-03T11:13:00;5.00;99.90
4564;DHT22;2294;51.818;8.484;2023-03-03T11:15:49;4.90;99.90
4564;DHT22;2294;51.818;8.484;2023-03-03T11:18:24;5.50;99.90
4564;DHT22;2294;51.818;8.484;2023-03-03T11:21:03;4.90;99.90
4564;DHT22;2294;51.818;8.484;2023-03-03T11:24:00;5.20;99.90
4564;DHT22;2294;51.818;8.484;2023-03-03T11:26:37;5.10;99.90
4564;DHT22;2294;51.818;8.484;2023-03-03T11:29:29;5.60;99.90
4564;DHT22;2294;51.818;8.484;2023-03-03T11:32:03;5.00;99.90
4564;DHT22;2294;51.818;8.484;2023-03-03T11:34:47;5.60;99.90
4564;DHT22;2294;51.818;8.484;2023-03-03T11:37:21;5.80;99.90
4564;DHT22;2294;51.818;8.484;2023-03-03T11:39:52;4.80;99.90
4564;DHT22;2294;51.818;8.484;2023-03-03T11:42:25;5.20;99.90
4564;DHT22;2294;51.818;8.484;2023-03-03T11:45:01;4.70;99.90
4564;DHT22;2294;51.818;8.484;2023-03-03T11:47:31;4.50;99.90
4564;DHT22;2294;51.818;8.484;2023-03-03T11:50:02;5.00;99.90
4564;DHT22;2294;51.818;8.484;2023-03-03T11:52:39;5.00;99.90
4564;DHT22;2294;51.818;8.484;2023-03-03T11:55:13;5.80;99.90
4564;DHT22;2294;51.818;8.484;2023-03-03T11:57:43;5.40;99.90
4564;DHT22;2294;51.818;8.484;2023-03-03T12:00:25;5.60;99.90
4564;DHT22;2294;51.818;8.484;2023-03-03T12:03:01;6.10;99.90
4564;DHT22;2294;51.818;8.484;2023-03-03T12:05:45;5.80;99.90
4564;DHT22;2294;51.818;8.484;2023-03-03T12:08:29;5.30;99.90
4564;DHT22;2294;51.818;8.484;2023-03-03T12:11:05;5.10;99.90
4564;DHT22;2294;51.818;8.484;2023-03-03T12:13:44;5.50;99.90
4564;DHT22;2294;51.818;8.484;2023-03-03T12:16:21;5.40;99.90
4564;DHT22;2294;51.818;8.484;2023-03-03T12:18:59;5.60;99.90
4564;DHT22;2294;51.818;8.484;2023-03-03T12:21:39;5.60;99.90
4564;DHT22;2294;51.818;8.484;2023-03-03T12:24:39;5.60;99.90
4564;DHT22;2294;51.818;8.484;2023-03-03T12:27:14;5.20;99.90
4564;DHT22;2294;51.818;8.484;2023-03-03T12:29:49;5.70;99.90
4564;DHT22;2294;51.818;8.484;2023-03-03T12:32:32;6.10;99.90
4564;DHT22;2294;51.818;8.484;2023-03-03T12:35:08;6.20;99.90
4564;DHT22;2294;51.818;8.484;2023-03-03T12:37:47;6.60;99.90
4564;DHT22;2294;51.818;8.484;2023-03-03T12:40:20;6.90;99.90
4564;DHT22;2294;51.818;8.484;2023-03-03T12:43:02;7.40;99.90
4564;DHT22;2294;51.818;8.484;2023-03-03T12:45:43;6.20;99.90
4564;DHT22;2294;51.818;8.484;2023-03-03T12:48:16;5.10;99.90
4564;DHT22;2294;51.818;8.484;2023-03-03T12:50:54;5.80;99.90
4564;DHT22;2294;51.818;8.484;2023-03-03T12:53:36;6.10;99.90
4564;DHT22;2294;51.818;8.484;2023-03-03T12:56:07;5.80;99.90
4564;DHT22;2294;51.818;8.484;2023-03-03T12:58:42;6.30;99.90
4564;DHT22;2294;51.818;8.484;2023-03-03T13:01:22;7.20;99.90
4564;DHT22;2294;51.818;8.484;2023-03-03T13:04:04;6.90;99.90
4564;DHT22;2294;51.818;8.484;2023-03-03T13:06:37;6.50;99.90
4564;DHT22;2294;51.818;8.484;2023-03-03T13:09:18;5.90;99.90
4564;DHT22;2294;51.818;8.484;2023-03-03T13:11:56;5.40;99.90
4564;DHT22;2294;51.818;8.484;2023-03-03T13:14:32;5.90;99.90
4564;DHT22;2294;51.818;8.484;2023-03-03T13:17:08;5.80;99.90
4564;DHT22;2294;51.818;8.484;2023-03-03T13:19:41;6.00;99.90
4564;DHT22;2294;51.818;8.484;2023-03-03T13:22:12;6.10;99.90
4564;DHT22;2294;51.818;8.484;2023-03-03T13:24:50;6.50;99.90
4564;DHT22;2294;51.818;8.484;2023-03-03T13:27:23;6.70;99.90
4564;DHT22;2294;51.818;8.484;2023-03-03T13:29:57;6.30;99.90
4564;DHT22;2294;51.818;8.484;2023-03-03T13:32:30;6.90;99.90
4564;DHT22;2294;51.818;8.484;2023-03-03T13:35:06;8.30;99.90
4564;DHT22;2294;51.818;8.484;2023-03-03T13:37:37;8.60;99.90
4564;DHT22;2294;51.818;8.484;2023-03-03T13:40:15;8.00;99.90
4564;DHT22;2294;51.818;8.484;2023-03-03T13:42:46;7.90;99.90
4564;DHT22;2294;51.818;8.484;2023-03-03T13:45:19;7.80;99.90
4564;DHT22;2294;51.818;8.484;2023-03-03T13:47:52;7.70;99.90
4564;DHT22;2294;51.818;8.484;2023-03-03T13:50:26;7.70;99.90
4564;DHT22;2294;51.818;8.484;2023-03-03T13:53:09;8.00;99.90
4564;DHT22;2294;51.818;8.484;2023-03-03T13:55:40;8.70;99.90
4564;DHT22;2294;51.818;8.484;2023-03-03T13:58:18;8.20;99.90
4564;DHT22;2294;51.818;8.484;2023-03-03T14:00:55;8.30;99.90
4564;DHT22;2294;51.818;8.484;2023-03-03T14:03:45;8.60;99.90
4564;DHT22;2294;51.818;8.484;2023-03-03T14:06:19;8.00;99.90
4564;DHT22;2294;51.818;8.484;2023-03-03T14:09:06;7.90;99.90
4564;DHT22;2294;51.818;8.484;2023-03-03T14:11:40;7.50;99.90
4564;DHT22;2294;51.818;8.484;2023-03-03T14:17:16;7.00;99.90
4564;DHT22;2294;51.818;8.484;2023-03-03T14:19:49;6.30;99.90
4564;DHT22;2294;51.818;8.484;2023-03-03T14:22:23;6.40;99.90
4564;DHT22;2294;51.818;8.484;2023-03-03T14:25:03;6.60;99.90
4564;DHT22;2294;51.818;8.484;2023-03-03T14:27:35;7.00;99.90
4564;DHT22;2294;51.818;8.484;2023-03-03T14:30:28;6.70;99.90
4564;DHT22;2294;51.818;8.484;2023-03-03T14:32:59;6.60;99.90
4564;DHT22;2294;51.818;8.484;2023-03-03T14:35:29;6.50;99.90
4564;DHT22;2294;51.818;8.484;2023-03-03T14:38:08;7.40;99.90
4564;DHT22;2294;51.818;8.484;2023-03-03T14:40:37;7.80;99.90
4564;DHT22;2294;51.818;8.484;2023-03-03T14:43:19;7.40;99.90
4564;DHT22;2294;51.818;8.484;2023-03-03T14:45:47;7.20;99.90
4564;DHT22;2294;51.818;8.484;2023-03-03T14:48:16;7.10;99.90
4564;DHT22;2294;51.818;8.484;2023-03-03T14:50:48;6.90;99.90
4564;DHT22;2294;51.818;8.484;2023-03-03T14:53:31;8.20;99.90
4564;DHT22;2294;51.818;8.484;2023-03-03T14:56:21;8.00;99.90
4564;DHT22;2294;51.818;8.484;2023-03-03T14:58:50;7.90;99.90
4564;DHT22;2294;51.818;8.484;2023-03-03T15:01:23;7.40;99.90
4564;DHT22;2294;51.818;8.484;2023-03-03T15:03:59;7.60;99.90
4564;DHT22;2294;51.818;8.484;2023-03-03T15:06:34;7.90;99.90
4564;DHT22;2294;51.818;8.484;2023-03-03T15:09:28;8.70;99.90
4564;DHT22;2294;51.818;8.484;2023-03-03T15:11:58;7.80;99.90
4564;DHT22;2294;51.818;8.484;2023-03-03T15:14:31;8.40;99.90
4564;DHT22;2294;51.818;8.484;2023-03-03T15:17:23;8.00;99.90
4564;DHT22;2294;51.818;8.484;2023-03-03T15:19:59;7.50;99.90
4564;DHT22;2294;51.818;8.484;2023-03-03T15:22:45;6.60;99.90
4564;DHT22;2294;51.818;8.484;2023-03-03T15:25:21;6.40;99.90
4564;DHT22;2294;51.818;8.484;2023-03-03T15:27:56;6.10;99.90
4564;DHT22;2294;51.818;8.484;2023-03-03T15:30:33;6.90;99.90
4564;DHT22;2294;51.818;8.484;2023-03-03T15:33:06;6.90;99.90
4564;DHT22;2294;51.818;8.484;2023-03-03T15:35:46;6.50;99.90
4564;DHT22;2294;51.818;8.484;2023-03-03T15:38:25;6.70;99.90
4564;DHT22;2294;51.818;8.484;2023-03-03T15:41:05;7.10;99.90
4564;DHT22;2294;51.818;8.484;2023-03-03T15:43:37;7.40;99.90
4564;DHT22;2294;51.818;8.484;2023-03-03T15:46:15;7.40;99.90
4564;DHT22;2294;51.818;8.484;2023-03-03T15:49:01;7.10;99.90
4564;DHT22;2294;51.818;8.484;2023-03-03T15:51:42;6.40;99.90
4564;DHT22;2294;51.818;8.484;2023-03-03T15:54:29;6.20;99.90
4564;DHT22;2294;51.818;8.484;2023-03-03T15:57:04;6.10;99.90
4564;DHT22;2294;51.818;8.484;2023-03-03T16:00:00;6.00;99.90
4564;DHT22;2294;51.818;8.484;2023-03-03T16:02:41;6.10;99.90
4564;DHT22;2294;51.818;8.484;2023-03-03T16:05:14;5.90;99.90
4564;DHT22;2294;51.818;8.484;2023-03-03T16:07:48;5.80;99.90
4564;DHT22;2294;51.818;8.484;2023-03-03T16:10:21;5.70;99.90
4564;DHT22;2294;51.818;8.484;2023-03-03T16:12:57;5.40;99.90
4564;DHT22;2294;51.818;8.484;2023-03-03T16:15:42;5.50;99.90
4564;DHT22;2294;51.818;8.484;2023-03-03T16:18:19;5.70;99.90
4564;DHT22;2294;51.818;8.484;2023-03-03T16:20:57;6.00;99.90
4564;DHT22;2294;51.818;8.484;2023-03-03T16:23:33;5.60;99.90
4564;DHT22;2294;51.818;8.484;2023-03-03T16:26:09;5.50;99.90
4564;DHT22;2294;51.818;8.484;2023-03-03T16:28:50;5.50;99.90
4564;DHT22;2294;51.818;8.484;2023-03-03T16:31:21;5.30;99.90
4564;DHT22;2294;51.818;8.484;2023-03-03T16:33:53;5.10;99.90
4564;DHT22;2294;51.818;8.484;2023-03-03T16:36:29;5.10;99.90
4564;DHT22;2294;51.818;8.484;2023-03-03T16:39:01;5.00;99.90
4564;DHT22;2294;51.818;8.484;2023-03-03T16:41:42;5.00;99.90
4564;DHT22;2294;51.818;8.484;2023-03-03T16:44:25;5.10;99.90
4564;DHT22;2294;51.818;8.484;2023-03-03T16:47:04;5.10;99.90
4564;DHT22;2294;51.818;8.484;2023-03-03T16:49:38;5.10;99.90
4564;DHT22;2294;51.818;8.484;2023-03-03T16:52:10;5.10;99.90
4564;DHT22;2294;51.818;8.484;2023-03-03T16:54:45;5.40;99.90
4564;DHT22;2294;51.818;8.484;2023-03-03T16:57:20;4.90;99.90
4564;DHT22;2294;51.818;8.484;2023-03-03T17:00:04;4.90;99.90
4564;DHT22;2294;51.818;8.484;2023-03-03T17:02:42;4.90;99.90